Terminal Aerodrome Forecast
Issued by NWS Duluth, MN

Home | Current Version | Previous Version | Text Only | Print | Product List | Glossary On
Versions: 1 2 3 4 5 6 7 8 9 10 11 12 13 14 15 16 17 18 19 20 21 22 23 24 25
000
FTUS43 KDLH 220000 AAA
TAFINL
TAF AMD
KINL 220036Z 2201/2224 21012KT P6SM OVC100 WS020/24040KT
      TEMPO 2201/2204 21012G20KT
     FM220600 23010KT P6SM BKN018 OVC100
     FM221000 24008KT 6SM -DZ BR OVC012
     FM221800 19005KT 4SM -DZ BR OVC007=

USA.gov is the U.S. government's official web portal to all federal, state and local government web resources and services.